Time;durP1;ratioP1;P1;durP2;ratioP2;P2;SDS_P1;SDS_P2;PMS_P1;PMS_P2;Temp;Humidity;BMP_temperature;BMP_pressure;BME280_temperature;BME280_humidity;BME280_pressure;Samples;Min_cycle;Max_cycle;Signal;HPM_P1;HPM_P2
2023/04/26 00:01:59;;;;;;;7.45;2.53;;;;;;;;;;5030672;28;20482;-83
2023/04/26 00:04:27;;;;;;;7.15;2.70;;;;;;;;;;5028378;28;20050;-83
2023/04/26 00:06:53;;;;;;;8.18;2.53;;;;;;;;;;5030367;28;20049;-83
2023/04/26 00:09:19;;;;;;;7.85;3.00;;;;;;;;;;5029930;28;20037;-83
2023/04/26 00:11:46;;;;;;;7.00;2.58;;;;;;;;;;5029683;28;20068;-83
2023/04/26 00:14:12;;;;;;;5.50;2.40;;;;;;;;;;5030647;28;20041;-83
2023/04/26 00:16:38;;;;;;;7.15;2.78;;;;;;;;;;5029741;28;20085;-83
2023/04/26 00:19:04;;;;;;;5.32;2.63;;;;;;;;;;5030815;28;20344;-84
2023/04/26 00:21:30;;;;;;;8.27;3.05;;;;;;;;;;5030332;28;20037;-83
2023/04/26 00:23:57;;;;;;;5.15;2.45;;;;;;;;;;5029160;28;20055;-83
2023/04/26 00:26:23;;;;;;;6.00;2.53;;;;;;;;;;5028624;28;20221;-83
2023/04/26 00:28:49;;;;;;;6.47;3.10;;;;;;;;;;5030147;28;20042;-84
2023/04/26 00:31:16;;;;;;;5.57;2.50;;;;;;;;;;5012823;28;20118;-84
2023/04/26 00:33:43;;;;;;;7.45;2.80;;;;;;;;;;5030481;28;20046;-83
2023/04/26 00:36:09;;;;;;;6.47;2.45;;;;;;;;;;5028980;28;20048;-83
2023/04/26 00:38:35;;;;;;;7.00;2.88;;;;;;;;;;5030387;28;20046;-83
2023/04/26 00:41:01;;;;;;;7.68;2.95;;;;;;;;;;5029268;28;20052;-83
2023/04/26 00:43:27;;;;;;;8.52;3.30;;;;;;;;;;5029197;28;20080;-83
2023/04/26 00:45:54;;;;;;;7.40;2.83;;;;;;;;;;5030479;28;20060;-83
2023/04/26 00:48:20;;;;;;;7.78;2.67;;;;;;;;;;5029894;28;20049;-83
2023/04/26 00:50:46;;;;;;;5.72;2.70;;;;;;;;;;5029190;28;20045;-83
2023/04/26 00:53:13;;;;;;;8.40;2.70;;;;;;;;;;5028109;28;20064;-83
2023/04/26 00:55:43;;;;;;;7.45;2.50;;;;;;;;;;5040557;23;20472;-74
2023/04/26 00:58:09;;;;;;;9.25;2.65;;;;;;;;;;5016617;28;20038;-73
2023/04/26 01:00:35;;;;;;;8.10;2.70;;;;;;;;;;5016408;28;20387;-73
2023/04/26 01:03:02;;;;;;;6.35;2.55;;;;;;;;;;5034091;28;20046;-73
2023/04/26 01:05:28;;;;;;;5.78;2.50;;;;;;;;;;5033326;28;20057;-73
2023/04/26 01:07:54;;;;;;;6.88;2.40;;;;;;;;;;5033643;28;20396;-74
2023/04/26 01:10:20;;;;;;;8.38;3.80;;;;;;;;;;5033060;28;20195;-73
2023/04/26 01:12:46;;;;;;;7.75;2.75;;;;;;;;;;5015083;28;20107;-73
2023/04/26 01:15:13;;;;;;;6.63;2.70;;;;;;;;;;5034030;28;20095;-73
2023/04/26 01:17:39;;;;;;;5.57;2.42;;;;;;;;;;5033553;28;20095;-73
2023/04/26 01:20:07;;;;;;;6.75;2.75;;;;;;;;;;5033379;28;20472;-74
2023/04/26 01:22:36;;;;;;;6.72;2.72;;;;;;;;;;5034058;28;20502;-74
2023/04/26 01:25:04;;;;;;;6.70;2.63;;;;;;;;;;5034340;28;20120;-73
2023/04/26 01:27:30;;;;;;;8.55;2.67;;;;;;;;;;5033954;28;20042;-74
2023/04/26 01:29:56;;;;;;;8.68;2.78;;;;;;;;;;5015574;28;20088;-73
2023/04/26 01:32:22;;;;;;;8.70;2.50;;;;;;;;;;5034095;28;20072;-73
2023/04/26 01:34:48;;;;;;;7.75;2.13;;;;;;;;;;5033684;28;20044;-74
2023/04/26 01:37:14;;;;;;;7.72;3.53;;;;;;;;;;5033664;28;20399;-73
2023/04/26 01:39:40;;;;;;;5.30;2.65;;;;;;;;;;5033963;28;20116;-73
2023/04/26 01:42:06;;;;;;;7.75;2.75;;;;;;;;;;5033107;28;20048;-73
2023/04/26 01:44:32;;;;;;;10.95;2.72;;;;;;;;;;5034739;28;20041;-73
2023/04/26 01:46:58;;;;;;;6.57;2.85;;;;;;;;;;5037542;28;20123;-73
2023/04/26 01:49:24;;;;;;;3.60;2.22;;;;;;;;;;5037848;28;20492;-73
2023/04/26 01:51:51;;;;;;;5.70;2.60;;;;;;;;;;5033902;28;20130;-73
2023/04/26 01:54:17;;;;;;;6.47;2.92;;;;;;;;;;5033658;28;20052;-73
2023/04/26 01:56:43;;;;;;;5.82;2.88;;;;;;;;;;5033510;28;20365;-73
2023/04/26 01:59:09;;;;;;;8.30;2.72;;;;;;;;;;5033243;28;20499;-73
2023/04/26 02:01:35;;;;;;;8.90;2.53;;;;;;;;;;5033190;28;20048;-74
2023/04/26 02:04:01;;;;;;;8.30;3.05;;;;;;;;;;5033425;28;20045;-73
2023/04/26 02:06:27;;;;;;;5.45;2.60;;;;;;;;;;5035970;28;20038;-73
2023/04/26 02:08:53;;;;;;;8.38;2.90;;;;;;;;;;5018086;28;20045;-74
2023/04/26 02:11:19;;;;;;;5.47;2.50;;;;;;;;;;5036531;28;20080;-74
2023/04/26 02:13:45;;;;;;;5.38;2.63;;;;;;;;;;5019937;28;20152;-74
2023/04/26 02:16:11;;;;;;;7.43;2.65;;;;;;;;;;5037083;28;20478;-74
2023/04/26 02:18:37;;;;;;;6.68;2.40;;;;;;;;;;5037491;28;20518;-74
2023/04/26 02:21:07;;;;;;;6.72;2.60;;;;;;;;;;5036351;28;20064;-74
2023/04/26 02:23:33;;;;;;;6.45;2.45;;;;;;;;;;5036991;28;20045;-74
2023/04/26 02:25:59;;;;;;;6.85;2.40;;;;;;;;;;5037101;28;20103;-74
2023/04/26 02:28:25;;;;;;;5.28;2.63;;;;;;;;;;5037337;28;20046;-74
2023/04/26 02:30:51;;;;;;;7.50;2.72;;;;;;;;;;5003009;28;20049;-74
2023/04/26 02:33:17;;;;;;;3.58;2.10;;;;;;;;;;5019443;28;20136;-74
2023/04/26 02:35:43;;;;;;;3.42;2.10;;;;;;;;;;5019051;28;20173;-74
2023/04/26 02:38:09;;;;;;;4.68;2.22;;;;;;;;;;5037155;28;20096;-74
2023/04/26 02:40:35;;;;;;;7.50;2.60;;;;;;;;;;5001540;28;20053;-74
2023/04/26 02:43:01;;;;;;;4.03;2.17;;;;;;;;;;5018756;28;20056;-74
2023/04/26 02:45:27;;;;;;;4.10;1.98;;;;;;;;;;5019385;28;20053;-74
2023/04/26 02:47:54;;;;;;;5.03;2.55;;;;;;;;;;5019144;28;20067;-74
2023/04/26 02:50:20;;;;;;;6.97;2.50;;;;;;;;;;5036384;28;20045;-74
2023/04/26 02:52:46;;;;;;;4.68;2.40;;;;;;;;;;5036690;28;20045;-74
2023/04/26 02:55:12;;;;;;;6.63;2.78;;;;;;;;;;5014956;28;20463;-74
2023/04/26 02:57:38;;;;;;;7.53;2.83;;;;;;;;;;5015629;28;20044;-74
2023/04/26 03:00:04;;;;;;;5.93;2.55;;;;;;;;;;5026186;28;20056;-74
2023/04/26 03:02:31;;;;;;;7.15;3.05;;;;;;;;;;5036855;28;20042;-74
2023/04/26 03:04:57;;;;;;;8.50;2.67;;;;;;;;;;5036712;28;20038;-74
2023/04/26 03:07:23;;;;;;;5.88;2.80;;;;;;;;;;5036538;28;20056;-74
2023/04/26 03:09:49;;;;;;;4.18;2.45;;;;;;;;;;5035876;28;20037;-75
2023/04/26 03:12:15;;;;;;;8.77;2.55;;;;;;;;;;5035585;28;20056;-74
2023/04/26 03:14:41;;;;;;;4.65;2.60;;;;;;;;;;5018307;28;20041;-72
2023/04/26 03:17:07;;;;;;;4.28;2.42;;;;;;;;;;5018594;28;20045;-72
2023/04/26 03:19:33;;;;;;;7.53;2.80;;;;;;;;;;5034952;28;20045;-72
2023/04/26 03:22:00;;;;;;;6.15;2.30;;;;;;;;;;5024683;28;20041;-72
2023/04/26 03:24:26;;;;;;;3.92;2.45;;;;;;;;;;5035874;28;20432;-73
2023/04/26 03:26:52;;;;;;;7.95;2.60;;;;;;;;;;5035845;28;20518;-73
2023/04/26 03:29:18;;;;;;;6.20;2.90;;;;;;;;;;5035692;28;20045;-73
2023/04/26 03:31:44;;;;;;;7.50;2.90;;;;;;;;;;5014512;28;20040;-73
2023/04/26 03:34:10;;;;;;;5.20;2.63;;;;;;;;;;5027411;28;20041;-73
2023/04/26 03:36:37;;;;;;;4.78;2.20;;;;;;;;;;5035038;28;20433;-73
2023/04/26 03:39:04;;;;;;;8.48;2.38;;;;;;;;;;5035825;28;20495;-73
2023/04/26 03:41:32;;;;;;;6.43;2.72;;;;;;;;;;5018406;28;20454;-73
2023/04/26 03:43:58;;;;;;;6.63;2.65;;;;;;;;;;5035740;28;20041;-73
2023/04/26 03:46:24;;;;;;;8.05;2.83;;;;;;;;;;5034603;28;20478;-73
2023/04/26 03:48:50;;;;;;;5.45;2.45;;;;;;;;;;5035112;28;20486;-72
2023/04/26 03:51:16;;;;;;;6.07;2.75;;;;;;;;;;5001694;28;20384;-73
2023/04/26 03:53:43;;;;;;;3.70;2.17;;;;;;;;;;5035439;28;20098;-73
2023/04/26 03:56:09;;;;;;;6.82;2.78;;;;;;;;;;5032252;28;20095;-73
2023/04/26 03:58:35;;;;;;;5.97;2.63;;;;;;;;;;5015841;28;20065;-73
2023/04/26 04:01:02;;;;;;;4.88;2.38;;;;;;;;;;5015757;28;20072;-73
2023/04/26 04:03:29;;;;;;;5.13;2.65;;;;;;;;;;5027370;28;20052;-73
2023/04/26 04:05:55;;;;;;;5.03;2.60;;;;;;;;;;5034408;28;20041;-73
2023/04/26 04:08:21;;;;;;;8.90;2.75;;;;;;;;;;5035359;28;20045;-73
2023/04/26 04:10:47;;;;;;;9.00;2.70;;;;;;;;;;5035476;28;20132;-74
2023/04/26 04:13:13;;;;;;;5.82;2.90;;;;;;;;;;5035305;28;20116;-73
2023/04/26 04:15:39;;;;;;;7.00;2.97;;;;;;;;;;5001238;28;20503;-73
2023/04/26 04:18:05;;;;;;;3.95;2.70;;;;;;;;;;5003521;28;20045;-73
2023/04/26 04:20:31;;;;;;;6.38;2.80;;;;;;;;;;5011449;28;20046;-73
2023/04/26 04:22:57;;;;;;;4.53;2.63;;;;;;;;;;4981834;28;20137;-73
2023/04/26 04:25:24;;;;;;;6.55;2.60;;;;;;;;;;5015420;28;20045;-73
2023/04/26 04:27:50;;;;;;;6.75;2.95;;;;;;;;;;5030519;28;20042;-73
2023/04/26 04:30:17;;;;;;;6.97;5.30;;;;;;;;;;5020033;28;20046;-73
2023/04/26 04:32:43;;;;;;;10.00;3.55;;;;;;;;;;4997499;28;20125;-73
2023/04/26 04:35:10;;;;;;;7.70;2.70;;;;;;;;;;5029973;28;20049;-73
2023/04/26 04:37:36;;;;;;;5.20;2.92;;;;;;;;;;5032897;28;20046;-73
2023/04/26 04:40:03;;;;;;;6.22;2.60;;;;;;;;;;5035004;28;20057;-73
2023/04/26 04:42:29;;;;;;;5.15;2.53;;;;;;;;;;5034603;28;20044;-73
2023/04/26 04:44:56;;;;;;;5.50;2.47;;;;;;;;;;5033658;28;20045;-73
2023/04/26 04:47:22;;;;;;;4.93;2.28;;;;;;;;;;5034725;28;20049;-73
2023/04/26 04:49:48;;;;;;;4.80;2.60;;;;;;;;;;5035025;28;20048;-73
2023/04/26 04:52:14;;;;;;;4.68;2.47;;;;;;;;;;5035772;28;20120;-73
2023/04/26 04:54:40;;;;;;;4.85;2.50;;;;;;;;;;5019258;28;20049;-74
2023/04/26 04:57:06;;;;;;;3.25;2.25;;;;;;;;;;5037258;28;20053;-73
2023/04/26 04:59:32;;;;;;;4.55;2.45;;;;;;;;;;5016968;28;20103;-74
2023/04/26 05:01:58;;;;;;;4.35;2.53;;;;;;;;;;5034375;28;20045;-74
2023/04/26 05:04:25;;;;;;;5.90;2.83;;;;;;;;;;5033034;28;20114;-73
2023/04/26 05:06:51;;;;;;;4.25;2.33;;;;;;;;;;5032640;28;20079;-73
2023/04/26 05:09:17;;;;;;;5.70;2.38;;;;;;;;;;5015686;28;20049;-73
2023/04/26 05:11:43;;;;;;;5.07;2.60;;;;;;;;;;5034135;28;20049;-73
2023/04/26 05:14:09;;;;;;;6.18;2.92;;;;;;;;;;5033595;28;20042;-73
2023/04/26 05:16:35;;;;;;;5.80;2.50;;;;;;;;;;5027148;28;20087;-74
2023/04/26 05:19:01;;;;;;;3.72;2.40;;;;;;;;;;5014162;28;20419;-74
2023/04/26 05:21:27;;;;;;;4.32;2.25;;;;;;;;;;5014515;28;20507;-73
2023/04/26 05:23:53;;;;;;;6.90;2.80;;;;;;;;;;5014250;28;20060;-74
2023/04/26 05:26:19;;;;;;;4.25;2.50;;;;;;;;;;5000074;28;20045;-73
2023/04/26 05:28:45;;;;;;;4.55;2.40;;;;;;;;;;5033587;28;20056;-74
2023/04/26 05:31:12;;;;;;;6.40;2.72;;;;;;;;;;5032145;28;20045;-74
2023/04/26 05:33:38;;;;;;;6.50;3.08;;;;;;;;;;5015906;28;20057;-74
2023/04/26 05:36:04;;;;;;;4.32;2.50;;;;;;;;;;5032306;28;20042;-74
2023/04/26 05:38:31;;;;;;;6.80;3.10;;;;;;;;;;4996752;28;20046;-74
2023/04/26 05:40:57;;;;;;;7.95;2.67;;;;;;;;;;5012823;28;20376;-74
2023/04/26 05:43:23;;;;;;;5.60;2.72;;;;;;;;;;5032258;28;20041;-74
2023/04/26 05:45:52;;;;;;;5.68;2.75;;;;;;;;;;5030942;28;20038;-73
2023/04/26 05:48:20;;;;;;;8.68;2.75;;;;;;;;;;4998002;28;20503;-74
2023/04/26 05:50:46;;;;;;;5.20;2.55;;;;;;;;;;5033608;28;20041;-73
2023/04/26 05:53:12;;;;;;;6.18;2.88;;;;;;;;;;5032763;28;20048;-74
2023/04/26 05:55:38;;;;;;;6.88;3.15;;;;;;;;;;5033353;28;20050;-74
2023/04/26 05:58:05;;;;;;;6.72;2.60;;;;;;;;;;5015839;28;20049;-74
2023/04/26 06:00:32;;;;;;;5.07;2.47;;;;;;;;;;5033479;28;20129;-74
2023/04/26 06:02:58;;;;;;;7.55;2.80;;;;;;;;;;5014844;28;20077;-74
2023/04/26 06:05:24;;;;;;;5.63;2.60;;;;;;;;;;5033029;28;20042;-74
2023/04/26 06:07:50;;;;;;;6.57;2.58;;;;;;;;;;5033741;28;20037;-74
2023/04/26 06:10:16;;;;;;;6.35;2.63;;;;;;;;;;5033729;28;20046;-74
2023/04/26 06:12:43;;;;;;;3.75;2.75;;;;;;;;;;5033793;28;20111;-76
2023/04/26 06:15:10;;;;;;;4.88;2.30;;;;;;;;;;5027088;28;20038;-75
2023/04/26 06:17:36;;;;;;;5.03;2.70;;;;;;;;;;5022453;28;20392;-75
2023/04/26 06:20:02;;;;;;;6.53;2.88;;;;;;;;;;5033331;28;20041;-75
2023/04/26 06:22:28;;;;;;;6.40;2.47;;;;;;;;;;5025175;28;20129;-75
2023/04/26 06:24:54;;;;;;;6.32;3.00;;;;;;;;;;5015410;28;20041;-75
2023/04/26 06:27:20;;;;;;;4.18;2.53;;;;;;;;;;5014792;28;20046;-75
2023/04/26 06:29:46;;;;;;;4.53;2.53;;;;;;;;;;5015698;28;20049;-75
2023/04/26 06:32:12;;;;;;;5.80;2.75;;;;;;;;;;5014788;28;20073;-75
2023/04/26 06:34:38;;;;;;;4.85;2.60;;;;;;;;;;5032344;28;20376;-75
2023/04/26 06:37:05;;;;;;;5.68;2.40;;;;;;;;;;5015908;28;20127;-75
2023/04/26 06:39:31;;;;;;;5.13;2.20;;;;;;;;;;5015509;28;20052;-75
2023/04/26 06:41:57;;;;;;;4.25;2.60;;;;;;;;;;5030990;28;20091;-75
2023/04/26 06:44:23;;;;;;;8.30;2.97;;;;;;;;;;5033158;28;20390;-75
2023/04/26 06:46:49;;;;;;;5.32;2.58;;;;;;;;;;5014892;28;20042;-75
2023/04/26 06:49:15;;;;;;;6.00;3.10;;;;;;;;;;5013201;28;20495;-75
2023/04/26 06:51:41;;;;;;;4.72;2.50;;;;;;;;;;5033186;28;20049;-74
2023/04/26 06:54:07;;;;;;;4.75;2.55;;;;;;;;;;5035368;28;20128;-75
2023/04/26 06:56:33;;;;;;;5.00;2.88;;;;;;;;;;5034623;28;20128;-75
2023/04/26 06:58:59;;;;;;;7.13;2.70;;;;;;;;;;5036836;28;20092;-75
2023/04/26 07:01:27;;;;;;;9.00;2.92;;;;;;;;;;5019951;28;20121;-75
2023/04/26 07:03:54;;;;;;;4.68;2.60;;;;;;;;;;5032776;28;20045;-75
2023/04/26 07:06:20;;;;;;;7.00;2.75;;;;;;;;;;5035898;28;20045;-78
2023/04/26 07:08:46;;;;;;;6.55;3.38;;;;;;;;;;5005360;28;20054;-81
2023/04/26 07:11:13;;;;;;;6.85;2.78;;;;;;;;;;5017592;28;20128;-75
2023/04/26 07:13:39;;;;;;;7.07;3.15;;;;;;;;;;5020417;28;20038;-77
2023/04/26 07:16:05;;;;;;;7.97;2.95;;;;;;;;;;5037026;28;20069;-75
2023/04/26 07:18:31;;;;;;;7.65;2.67;;;;;;;;;;5037012;28;20530;-75
2023/04/26 07:20:57;;;;;;;5.40;2.80;;;;;;;;;;5035941;28;20121;-75
2023/04/26 07:23:23;;;;;;;4.82;2.50;;;;;;;;;;5035123;28;20077;-76
2023/04/26 07:25:49;;;;;;;4.57;2.65;;;;;;;;;;5032868;28;20041;-75
2023/04/26 07:28:15;;;;;;;5.97;2.90;;;;;;;;;;5017704;28;20095;-75
2023/04/26 07:30:41;;;;;;;7.55;3.08;;;;;;;;;;5036037;28;20045;-75
2023/04/26 07:33:07;;;;;;;5.68;3.03;;;;;;;;;;5035875;28;20049;-75
2023/04/26 07:35:34;;;;;;;7.68;3.88;;;;;;;;;;5035481;28;20053;-75
2023/04/26 07:38:01;;;;;;;8.30;2.80;;;;;;;;;;5034940;28;20049;-75
2023/04/26 07:40:28;;;;;;;6.50;2.75;;;;;;;;;;5036062;28;20041;-74
2023/04/26 07:42:54;;;;;;;7.05;2.88;;;;;;;;;;5017358;28;20073;-75
2023/04/26 07:45:20;;;;;;;6.07;3.00;;;;;;;;;;5018082;28;20041;-75
2023/04/26 07:47:47;;;;;;;5.65;2.90;;;;;;;;;;5025731;28;20045;-75
2023/04/26 07:50:13;;;;;;;11.85;3.75;;;;;;;;;;5001429;28;20053;-75
2023/04/26 07:52:39;;;;;;;7.15;3.53;;;;;;;;;;5016757;28;20042;-75
2023/04/26 07:55:05;;;;;;;4.35;2.80;;;;;;;;;;4998137;28;20091;-77
2023/04/26 07:57:31;;;;;;;5.50;2.90;;;;;;;;;;5017670;28;20406;-76
2023/04/26 07:59:58;;;;;;;8.82;3.63;;;;;;;;;;4999336;28;20533;-76
2023/04/26 08:02:24;;;;;;;5.47;2.95;;;;;;;;;;5037598;28;20049;-76
2023/04/26 08:04:54;;;;;;;5.28;3.08;;;;;;;;;;5020222;28;20129;-76
2023/04/26 08:07:20;;;;;;;9.70;3.33;;;;;;;;;;5036166;28;20120;-77
2023/04/26 08:09:47;;;;;;;6.60;2.90;;;;;;;;;;5016840;28;20465;-76
2023/04/26 08:12:14;;;;;;;6.97;3.10;;;;;;;;;;4999749;28;20045;-77
2023/04/26 08:14:40;;;;;;;6.65;2.90;;;;;;;;;;5024983;28;20123;-76
2023/04/26 08:17:08;;;;;;;11.13;3.65;;;;;;;;;;5033628;28;20084;-77
2023/04/26 08:19:35;;;;;;;8.20;3.10;;;;;;;;;;5030383;28;20075;-77
2023/04/26 08:22:01;;;;;;;4.95;2.72;;;;;;;;;;4999755;28;20129;-76
2023/04/26 08:24:27;;;;;;;6.15;2.33;;;;;;;;;;5020595;28;20049;-76
2023/04/26 08:26:54;;;;;;;5.15;2.25;;;;;;;;;;5033583;28;20430;-76
2023/04/26 08:29:20;;;;;;;6.85;2.70;;;;;;;;;;5032065;28;20120;-76
2023/04/26 08:31:46;;;;;;;8.82;2.50;;;;;;;;;;5015367;28;20049;-77
2023/04/26 08:34:12;;;;;;;5.78;2.50;;;;;;;;;;5035270;28;20148;-76
2023/04/26 08:36:38;;;;;;;4.10;2.40;;;;;;;;;;5034475;28;20067;-76
2023/04/26 08:39:05;;;;;;;4.63;2.58;;;;;;;;;;5033748;28;20045;-76
2023/04/26 08:41:35;;;;;;;4.05;2.22;;;;;;;;;;5034360;28;20042;-76
2023/04/26 08:44:04;;;;;;;4.35;2.35;;;;;;;;;;4990689;28;20133;-76
2023/04/26 08:46:32;;;;;;;5.80;2.25;;;;;;;;;;5014544;28;20053;-76
2023/04/26 08:49:13;;;;;;;5.10;2.30;;;;;;;;;;5014896;28;20498;-76
2023/04/26 08:51:39;;;;;;;3.75;2.08;;;;;;;;;;5003274;28;20166;-76
2023/04/26 08:54:06;;;;;;;7.50;2.58;;;;;;;;;;5032672;28;20041;-76
2023/04/26 08:56:34;;;;;;;4.75;1.80;;;;;;;;;;5033811;28;20061;-76
2023/04/26 08:59:00;;;;;;;6.97;2.40;;;;;;;;;;5033501;28;20422;-76
2023/04/26 09:01:28;;;;;;;3.78;2.10;;;;;;;;;;5033965;28;20050;-76
2023/04/26 09:03:55;;;;;;;5.65;2.47;;;;;;;;;;5033576;28;20048;-76
2023/04/26 09:06:21;;;;;;;6.03;2.20;;;;;;;;;;5033982;28;20095;-76
2023/04/26 09:08:47;;;;;;;8.75;2.90;;;;;;;;;;5034307;28;20041;-76
2023/04/26 09:11:13;;;;;;;6.93;1.80;;;;;;;;;;5034160;28;20037;-76
2023/04/26 09:13:40;;;;;;;3.97;2.08;;;;;;;;;;5032847;28;20046;-76
2023/04/26 09:16:06;;;;;;;7.57;2.20;;;;;;;;;;5033862;28;20105;-76
2023/04/26 09:18:32;;;;;;;7.70;2.33;;;;;;;;;;5016942;28;20072;-77
2023/04/26 09:21:08;;;;;;;7.28;2.40;;;;;;;;;;5035627;28;20041;-77
2023/04/26 09:23:35;;;;;;;4.65;2.58;;;;;;;;;;5030646;28;20069;-77
2023/04/26 09:26:20;;;;;;;5.45;2.47;;;;;;;;;;5033159;28;20110;-77
2023/04/26 09:28:46;;;;;;;4.80;2.70;;;;;;;;;;5032249;28;20046;-77
2023/04/26 09:31:36;;;;;;;6.30;2.38;;;;;;;;;;5033110;28;20052;-77
2023/04/26 09:34:02;;;;;;;4.85;2.15;;;;;;;;;;5029018;28;20507;-76
2023/04/26 09:36:28;;;;;;;4.03;2.30;;;;;;;;;;5011808;28;20049;-76
2023/04/26 09:38:55;;;;;;;4.47;2.30;;;;;;;;;;5016236;28;20054;-76
2023/04/26 09:41:21;;;;;;;5.22;2.08;;;;;;;;;;5014851;28;20045;-77
2023/04/26 09:43:48;;;;;;;4.20;1.80;;;;;;;;;;5034236;28;20502;-76
2023/04/26 09:46:22;;;;;;;4.85;2.20;;;;;;;;;;5034554;28;20048;-78
2023/04/26 09:49:00;;;;;;;4.70;2.50;;;;;;;;;;5035313;28;20391;-79
2023/04/26 09:51:27;;;;;;;5.13;2.42;;;;;;;;;;5034252;28;20068;-76
2023/04/26 09:53:56;;;;;;;6.38;2.53;;;;;;;;;;5022419;28;20050;-77
2023/04/26 09:56:22;;;;;;;3.67;2.10;;;;;;;;;;5027151;28;20112;-76
2023/04/26 09:58:59;;;;;;;2.95;2.05;;;;;;;;;;5032151;28;20052;-76
2023/04/26 10:01:28;;;;;;;6.97;2.33;;;;;;;;;;5032808;28;20080;-76
2023/04/26 10:03:55;;;;;;;4.82;2.42;;;;;;;;;;5033543;28;20376;-76
2023/04/26 10:06:21;;;;;;;5.10;2.42;;;;;;;;;;5033268;28;20045;-76
2023/04/26 10:08:47;;;;;;;6.85;2.60;;;;;;;;;;5028507;28;20068;-76
2023/04/26 10:11:14;;;;;;;6.20;2.42;;;;;;;;;;5030459;28;20073;-76
2023/04/26 10:13:40;;;;;;;6.28;2.80;;;;;;;;;;5033674;28;20091;-76
2023/04/26 10:16:06;;;;;;;6.50;2.40;;;;;;;;;;5015700;28;20494;-76
2023/04/26 10:18:33;;;;;;;8.05;2.45;;;;;;;;;;5018514;28;20376;-77
2023/04/26 10:21:00;;;;;;;6.40;2.42;;;;;;;;;;5033771;28;20041;-77
2023/04/26 10:23:26;;;;;;;5.47;2.53;;;;;;;;;;5033188;28;20463;-77
2023/04/26 10:25:53;;;;;;;5.68;2.40;;;;;;;;;;5015647;28;20037;-77
2023/04/26 10:28:39;;;;;;;7.05;2.28;;;;;;;;;;5019491;28;20084;-77
2023/04/26 10:31:06;;;;;;;4.20;2.25;;;;;;;;;;5036904;28;20049;-77
2023/04/26 10:33:32;;;;;;;3.50;2.20;;;;;;;;;;5035531;28;20475;-77
2023/04/26 10:36:06;;;;;;;3.88;2.05;;;;;;;;;;5036875;28;20041;-76
2023/04/26 10:38:32;;;;;;;6.20;1.70;;;;;;;;;;5036717;28;20042;-76
2023/04/26 10:41:17;;;;;;;4.97;2.10;;;;;;;;;;5022782;28;20037;-76
2023/04/26 10:43:43;;;;;;;7.30;2.33;;;;;;;;;;5038019;28;20095;-76
2023/04/26 10:46:28;;;;;;;5.93;2.35;;;;;;;;;;5036515;28;20120;-76
2023/04/26 10:48:55;;;;;;;3.95;2.22;;;;;;;;;;5039191;28;20582;-78
2023/04/26 10:51:21;;;;;;;6.95;2.50;;;;;;;;;;5018209;28;20403;-78
2023/04/26 10:53:47;;;;;;;4.97;2.15;;;;;;;;;;5018679;28;20115;-78
2023/04/26 10:56:22;;;;;;;7.65;2.70;;;;;;;;;;5036694;28;20077;-77
2023/04/26 10:58:50;;;;;;;4.87;2.23;;;;;;;;;;5025750;28;20054;-78
2023/04/26 11:01:17;;;;;;;5.75;2.00;;;;;;;;;;5036097;28;20822;-78
2023/04/26 11:03:58;;;;;;;4.68;2.08;;;;;;;;;;5017915;28;20052;-78
2023/04/26 11:06:25;;;;;;;4.60;2.35;;;;;;;;;;5023805;28;20391;-78
2023/04/26 11:08:52;;;;;;;4.28;2.30;;;;;;;;;;5036656;28;20056;-78
2023/04/26 11:11:19;;;;;;;3.90;2.20;;;;;;;;;;5036461;28;20126;-77
2023/04/26 11:13:47;;;;;;;8.70;3.58;;;;;;;;;;5037218;28;20045;-77
2023/04/26 11:16:14;;;;;;;8.32;4.10;;;;;;;;;;5020812;28;20475;-77
2023/04/26 11:18:41;;;;;;;9.35;4.95;;;;;;;;;;5038784;28;20125;-77
2023/04/26 11:21:08;;;;;;;3.72;1.98;;;;;;;;;;5020056;28;20049;-78
2023/04/26 11:23:35;;;;;;;3.42;2.03;;;;;;;;;;5036413;28;20092;-78
2023/04/26 11:26:07;;;;;;;3.72;1.98;;;;;;;;;;5035854;28;20157;-78
2023/04/26 11:28:34;;;;;;;5.32;2.00;;;;;;;;;;5035992;28;20041;-78
2023/04/26 11:31:01;;;;;;;5.38;2.40;;;;;;;;;;5035975;28;20064;-78
2023/04/26 11:33:27;;;;;;;4.43;1.90;;;;;;;;;;5032171;28;20521;-78
2023/04/26 11:35:54;;;;;;;4.03;2.63;;;;;;;;;;5037310;28;20076;-79
2023/04/26 11:38:24;;;;;;;3.67;2.30;;;;;;;;;;5033387;28;20041;-79
2023/04/26 11:40:56;;;;;;;4.05;2.10;;;;;;;;;;5035874;28;20438;-79
2023/04/26 11:43:22;;;;;;;5.18;2.60;;;;;;;;;;5035978;28;20399;-78
2023/04/26 11:45:48;;;;;;;5.40;2.30;;;;;;;;;;5035084;28;20377;-78
2023/04/26 11:48:15;;;;;;;4.50;2.50;;;;;;;;;;5034900;28;20376;-78
2023/04/26 11:50:41;;;;;;;4.38;2.40;;;;;;;;;;5022233;28;20042;-78
2023/04/26 11:53:08;;;;;;;6.00;2.17;;;;;;;;;;5020955;28;20835;-78
2023/04/26 11:55:35;;;;;;;8.40;2.72;;;;;;;;;;5010517;28;20048;-78
2023/04/26 11:58:02;;;;;;;7.07;2.30;;;;;;;;;;5033260;28;20041;-77
2023/04/26 12:00:28;;;;;;;6.65;2.63;;;;;;;;;;5033983;28;20065;-77
2023/04/26 12:02:56;;;;;;;5.40;2.88;;;;;;;;;;5034667;28;20041;-77
2023/04/26 12:05:23;;;;;;;5.70;2.40;;;;;;;;;;5034497;28;20516;-77
2023/04/26 12:07:50;;;;;;;7.65;2.20;;;;;;;;;;5035384;28;20079;-77
2023/04/26 12:10:17;;;;;;;6.35;2.20;;;;;;;;;;5028998;28;20116;-77
2023/04/26 12:12:44;;;;;;;4.32;2.72;;;;;;;;;;5019008;28;20041;-77
2023/04/26 12:15:11;;;;;;;6.60;2.65;;;;;;;;;;5031471;28;20124;-78
2023/04/26 12:17:37;;;;;;;7.75;2.63;;;;;;;;;;5019289;28;20107;-78
2023/04/26 12:20:10;;;;;;;5.28;2.30;;;;;;;;;;5031457;28;20521;-78
2023/04/26 12:22:36;;;;;;;5.40;2.65;;;;;;;;;;5021393;28;20088;-80
2023/04/26 12:25:06;;;;;;;3.13;2.22;;;;;;;;;;5011313;28;20037;-78
2023/04/26 12:27:32;;;;;;;5.10;2.33;;;;;;;;;;4990330;28;20045;-78
2023/04/26 12:29:59;;;;;;;6.95;2.53;;;;;;;;;;5012264;28;20048;-79
2023/04/26 12:32:25;;;;;;;6.43;2.05;;;;;;;;;;5036581;28;20041;-78
2023/04/26 12:34:51;;;;;;;3.50;2.50;;;;;;;;;;5032272;28;20037;-78
2023/04/26 12:37:17;;;;;;;4.47;2.50;;;;;;;;;;5034005;28;20045;-78
2023/04/26 12:39:43;;;;;;;4.85;2.50;;;;;;;;;;5017121;28;20052;-78
2023/04/26 12:42:09;;;;;;;6.07;2.47;;;;;;;;;;5034038;28;20033;-78
2023/04/26 12:44:35;;;;;;;4.35;2.10;;;;;;;;;;5034324;28;20046;-78
2023/04/26 12:47:01;;;;;;;3.72;2.28;;;;;;;;;;5016390;28;20557;-78
2023/04/26 12:49:29;;;;;;;4.20;2.10;;;;;;;;;;5016817;28;20081;-79
2023/04/26 12:51:55;;;;;;;4.03;2.45;;;;;;;;;;5001184;28;20460;-78
2023/04/26 12:54:21;;;;;;;6.35;2.80;;;;;;;;;;5001360;28;20559;-77
2023/04/26 12:56:48;;;;;;;7.53;2.60;;;;;;;;;;5032642;28;20583;-76
2023/04/26 12:59:14;;;;;;;5.88;2.60;;;;;;;;;;5034042;28;20084;-77
2023/04/26 13:01:40;;;;;;;5.53;3.00;;;;;;;;;;5034943;28;20104;-81
2023/04/26 13:04:06;;;;;;;4.22;2.53;;;;;;;;;;5033958;28;20048;-76
2023/04/26 13:06:32;;;;;;;4.95;2.65;;;;;;;;;;5027693;28;20873;-78
2023/04/26 13:08:59;;;;;;;4.80;2.80;;;;;;;;;;5033352;28;20081;-78
2023/04/26 13:11:25;;;;;;;7.10;2.50;;;;;;;;;;5025834;28;20377;-80
2023/04/26 13:13:51;;;;;;;7.07;2.78;;;;;;;;;;5029590;28;20128;-75
2023/04/26 13:16:17;;;;;;;6.40;2.45;;;;;;;;;;5032663;28;20280;-75
2023/04/26 13:18:43;;;;;;;7.70;3.50;;;;;;;;;;5033896;28;20049;-79
2023/04/26 13:21:09;;;;;;;6.78;2.50;;;;;;;;;;5016087;28;20561;-76
2023/04/26 13:23:35;;;;;;;6.68;3.05;;;;;;;;;;5033588;28;20042;-76
2023/04/26 13:26:01;;;;;;;5.47;2.90;;;;;;;;;;5033749;28;20060;-76
2023/04/26 13:28:27;;;;;;;5.13;2.78;;;;;;;;;;5032668;28;20379;-76
2023/04/26 13:30:54;;;;;;;4.80;2.63;;;;;;;;;;5033369;28;20507;-76
2023/04/26 13:33:20;;;;;;;5.38;2.70;;;;;;;;;;5030477;28;20578;-76
2023/04/26 13:35:46;;;;;;;3.45;2.75;;;;;;;;;;5032730;28;20502;-76
2023/04/26 13:38:12;;;;;;;3.92;2.50;;;;;;;;;;5026987;28;20041;-76
2023/04/26 13:40:38;;;;;;;5.72;2.50;;;;;;;;;;5032555;28;20048;-77
2023/04/26 13:43:04;;;;;;;9.40;2.92;;;;;;;;;;5032857;28;20041;-76
2023/04/26 13:45:30;;;;;;;3.45;2.10;;;;;;;;;;5030398;28;20148;-76
2023/04/26 13:47:56;;;;;;;4.32;2.30;;;;;;;;;;4998295;28;20045;-76
2023/04/26 13:50:22;;;;;;;5.65;2.10;;;;;;;;;;4998659;28;20041;-76
2023/04/26 13:52:51;;;;;;;4.55;2.20;;;;;;;;;;5015250;28;20130;-77
2023/04/26 13:55:17;;;;;;;5.22;2.53;;;;;;;;;;5014564;28;20080;-77
2023/04/26 13:57:43;;;;;;;5.72;2.60;;;;;;;;;;5034500;28;20052;-77
2023/04/26 14:00:10;;;;;;;3.78;2.70;;;;;;;;;;5016439;28;20479;-78
2023/04/26 14:02:36;;;;;;;6.90;2.60;;;;;;;;;;5000086;28;20050;-77
2023/04/26 14:05:03;;;;;;;5.05;2.70;;;;;;;;;;5037146;28;20077;-76
2023/04/26 14:07:29;;;;;;;4.70;2.60;;;;;;;;;;5034705;28;20049;-77
2023/04/26 14:09:55;;;;;;;6.57;3.05;;;;;;;;;;5015691;28;20053;-77
2023/04/26 14:12:21;;;;;;;4.00;2.72;;;;;;;;;;5033168;28;20041;-76
2023/04/26 14:14:47;;;;;;;3.90;2.60;;;;;;;;;;5033544;28;20053;-77
2023/04/26 14:17:14;;;;;;;6.72;2.90;;;;;;;;;;5033031;28;20049;-77
2023/04/26 14:19:41;;;;;;;4.20;2.95;;;;;;;;;;5033132;28;20045;-77
2023/04/26 14:22:11;;;;;;;5.03;3.08;;;;;;;;;;5033300;28;20487;-77
2023/04/26 14:24:37;;;;;;;7.63;2.88;;;;;;;;;;5015931;28;20049;-77
2023/04/26 14:27:03;;;;;;;5.40;2.60;;;;;;;;;;4998136;28;20041;-76
2023/04/26 14:29:29;;;;;;;5.40;3.13;;;;;;;;;;5032202;28;20130;-77
2023/04/26 14:31:55;;;;;;;6.00;2.78;;;;;;;;;;5016571;28;20049;-77
2023/04/26 14:34:22;;;;;;;7.93;3.08;;;;;;;;;;4993987;28;20038;-76
2023/04/26 14:36:48;;;;;;;7.38;2.83;;;;;;;;;;5017582;28;20128;-74
2023/04/26 14:39:15;;;;;;;8.27;2.70;;;;;;;;;;4999429;28;20049;-77
2023/04/26 14:41:42;;;;;;;2.83;2.50;;;;;;;;;;5015024;28;20484;-76